Latest Weather Observations for Fort Denison

IDN60801

Issued at 11:35 am EST Sunday 21 September 2014 (issued every 30 minutes, with the page automatically refreshed every 10 minutes)

About weather observations | Map of weather stations | Latest weather observations for NSW | Other Formats
Station Details ID: 066022 Name: FORT DENISON Lat: -33.86 Lon: 151.23 Height: 5.0 m
Data from the previous 72 hours. | See also: Recent months for locations in New South Wales
Date/Time
EST
Temp
°C
App
Temp
°C
Dew
Point
Rel
Hum
%
Delta-T
°C
Wind Press
QNH
hPa
Press
MSL
hPa
Rain
since 9 am
mm
Dir
 
Spd
km/h
Gust
km/h
Spd
kts
Gust
kts
21/11:30am - - - - - S 11 20 6 11 - - -
21/11:00am - - - - - SSW 15 24 8 13 - - -
21/10:30am - - - - - SSW 17 26 9 14 - - -
21/10:00am - - - - - SSW 19 26 10 14 - - -
21/09:30am - - - - - SSW 19 26 10 14 - - -
21/09:00am - - - - - WNW 15 22 8 12 - - -
21/08:30am - - - - - WNW 11 15 6 8 - - -
21/08:00am - - - - - W 13 17 7 9 - - -
21/07:30am - - - - - NW 7 11 4 6 - - -
21/07:00am - - - - - W 13 15 7 8 - - -
21/06:30am - - - - - W 17 20 9 11 - - -
21/06:00am - - - - - W 20 24 11 13 - - -
21/05:30am - - - - - W 19 24 10 13 - - -
21/05:00am - - - - - W 19 22 10 12 - - -
21/04:30am - - - - - W 17 20 9 11 - - -
21/04:00am - - - - - W 15 22 8 12 - - -
21/03:30am - - - - - W 20 24 11 13 - - -
21/03:00am - - - - - W 19 24 10 13 - - -
21/02:30am - - - - - W 22 26 12 14 - - -
21/02:00am - - - - - W 17 20 9 11 - - -
21/01:30am - - - - - W 17 19 9 10 - - -
21/01:00am - - - - - W 19 22 10 12 - - -
21/12:30am - - - - - W 19 20 10 11 - - -
21/12:00am - - - - - W 19 22 10 12 - - -
 
Date/Time
EST
Temp
°C
App
Temp
°C
Dew
Point
Rel
Hum
%
Delta-T
°C
Wind Press
QNH
hPa
Press
MSL
hPa
Rain
since 9 am
mm
Dir
 
Spd
km/h
Gust
km/h
Spd
kts
Gust
kts
20/11:30pm - - - - - W 17 20 9 11 - - -
20/11:00pm - - - - - W 19 22 10 12 - - -
20/10:30pm - - - - - W 17 20 9 11 - - -
20/10:00pm - - - - - W 13 19 7 10 - - -
20/09:30pm - - - - - SSW 9 11 5 6 - - -
20/09:00pm - - - - - S 6 9 3 5 - - -
20/08:30pm - - - - - S 11 19 6 10 - - -
20/08:00pm - - - - - SSE 11 19 6 10 - - -
20/07:30pm - - - - - S 11 17 6 9 - - -
20/07:00pm - - - - - SSE 15 20 8 11 - - -
20/06:30pm - - - - - SSE 17 24 9 13 - - -
20/06:00pm - - - - - SSE 17 26 9 14 - - -
20/05:30pm - - - - - SSE 20 26 11 14 - - -
20/05:00pm - - - - - SSE 20 28 11 15 - - -
20/04:30pm - - - - - SSE 19 28 10 15 - - -
20/04:00pm - - - - - SSE 22 30 12 16 - - -
20/03:30pm - - - - - SSE 20 32 11 17 - - -
20/03:00pm - - - - - SSE 22 32 12 17 - - -
20/02:30pm - - - - - SSE 19 28 10 15 - - -
20/02:00pm - - - - - SSE 22 32 12 17 - - -
20/01:30pm - - - - - SSE 22 33 12 18 - - -
20/01:00pm - - - - - SSE 22 32 12 17 - - -
20/12:30pm - - - - - S 17 28 9 15 - - -
20/12:00pm - - - - - S 20 30 11 16 - - -
20/11:30am - - - - - S 24 41 13 22 - - -
20/11:00am - - - - - S 20 30 11 16 - - -
20/10:30am - - - - - S 20 33 11 18 - - -
20/10:00am - - - - - S 19 30 10 16 - - -
20/09:30am - - - - - S 19 28 10 15 - - -
20/09:00am - - - - - W 13 15 7 8 - - -
20/08:30am - - - - - W 15 19 8 10 - - -
20/08:00am - - - - - W 17 22 9 12 - - -
20/07:30am - - - - - W 17 19 9 10 - - -
20/07:00am - - - - - WNW 15 19 8 10 - - -
20/06:30am - - - - - W 19 22 10 12 - - -
20/06:00am - - - - - WNW 15 20 8 11 - - -
20/05:30am - - - - - WNW 13 17 7 9 - - -
20/05:00am - - - - - W 15 17 8 9 - - -
20/04:30am - - - - - WNW 13 15 7 8 - - -
20/04:00am - - - - - W 17 19 9 10 - - -
20/03:30am - - - - - W 17 20 9 11 - - -
20/03:00am - - - - - W 17 19 9 10 - - -
20/02:30am - - - - - W 19 20 10 11 - - -
20/02:00am - - - - - W 17 19 9 10 - - -
20/01:30am - - - - - W 19 22 10 12 - - -
20/01:00am - - - - - W 17 19 9 10 - - -
20/12:30am - - - - - W 17 19 9 10 - - -
20/12:00am - - - - - W 17 19 9 10 - - -
 
Date/Time
EST
Temp
°C
App
Temp
°C
Dew
Point
Rel
Hum
%
Delta-T
°C
Wind Press
QNH
hPa
Press
MSL
hPa
Rain
since 9 am
mm
Dir
 
Spd
km/h
Gust
km/h
Spd
kts
Gust
kts
19/11:30pm - - - - - W 15 19 8 10 - - -
19/11:00pm - - - - - W 13 15 7 8 - - -
19/10:30pm - - - - - WSW 4 7 2 4 - - -
19/10:00pm - - - - - NNW 4 6 2 3 - - -
19/09:30pm - - - - - S 4 7 2 4 - - -
19/09:00pm - - - - - SSE 6 7 3 4 - - -
19/08:30pm - - - - - SE 7 9 4 5 - - -
19/08:00pm - - - - - SE 6 9 3 5 - - -
19/07:30pm - - - - - SE 7 13 4 7 - - -
19/07:00pm - - - - - SE 11 15 6 8 - - -
19/06:30pm - - - - - ESE 11 17 6 9 - - -
19/06:00pm - - - - - ESE 15 17 8 9 - - -
19/05:30pm - - - - - ESE 15 19 8 10 - - -
19/05:00pm - - - - - E 15 20 8 11 - - -
19/04:30pm - - - - - E 17 20 9 11 - - -
19/04:00pm - - - - - E 19 22 10 12 - - -
19/03:30pm - - - - - E 20 24 11 13 - - -
19/03:00pm - - - - - E 26 32 14 17 - - -
19/02:30pm - - - - - NE 6 9 3 5 - - -
19/02:00pm - - - - - NW 9 19 5 10 - - -
19/01:30pm - - - - - W 11 19 6 10 - - -
19/01:00pm - - - - - NNW 15 24 8 13 - - -
19/12:30pm - - - - - NNW 13 20 7 11 - - -
19/12:00pm - - - - - NW 9 17 5 9 - - -
19/11:30am - - - - - W 9 13 5 7 - - -
19/11:00am - - - - - W 11 15 6 8 - - -
19/10:30am - - - - - WNW 11 15 6 8 - - -
19/10:00am - - - - - WNW 13 17 7 9 - - -
19/09:30am - - - - - WNW 13 15 7 8 - - -
19/09:00am - - - - - W 19 22 10 12 - - -
19/08:30am - - - - - W 20 24 11 13 - - -
19/08:00am - - - - - W 22 26 12 14 - - -
19/07:30am - - - - - W 22 26 12 14 - - -
19/07:00am - - - - - W 20 26 11 14 - - -
19/06:30am - - - - - W 22 26 12 14 - - -
19/06:00am - - - - - W 20 24 11 13 - - -
19/05:30am - - - - - W 20 24 11 13 - - -
19/05:00am - - - - - W 19 22 10 12 - - -
19/04:30am - - - - - W 20 24 11 13 - - -
19/04:00am - - - - - W 17 20 9 11 - - -
19/03:30am - - - - - W 17 20 9 11 - - -
19/03:00am - - - - - W 17 20 9 11 - - -
19/02:30am - - - - - W 17 20 9 11 - - -
19/02:00am - - - - - W 15 19 8 10 - - -
19/01:30am - - - - - W 15 19 8 10 - - -
19/01:00am - - - - - WNW 9 13 5 7 - - -
19/12:30am - - - - - WNW 9 13 5 7 - - -
19/12:00am - - - - - WNW 9 13 5 7 - - -
 
Date/Time
EST
Temp
°C
App
Temp
°C
Dew
Point
Rel
Hum
%
Delta-T
°C
Wind Press
QNH
hPa
Press
MSL
hPa
Rain
since 9 am
mm
Dir
 
Spd
km/h
Gust
km/h
Spd
kts
Gust
kts
18/11:30pm - - - - - W 11 17 6 9 - - -
18/11:00pm - - - - - W 9 13 5 7 - - -
18/10:30pm - - - - - W 13 19 7 10 - - -
18/10:00pm - - - - - W 13 19 7 10 - - -
18/09:30pm - - - - - W 17 28 9 15 - - -
18/09:00pm - - - - - W 17 28 9 15 - - -
18/08:30pm - - - - - WSW 9 15 5 8 - - -
18/08:00pm - - - - - SSW 6 9 3 5 - - -
18/07:30pm - - - - - S 9 13 5 7 - - -
18/07:00pm - - - - - SSE 11 15 6 8 - - -
18/06:30pm - - - - - SSE 13 15 7 8 - - -
18/06:00pm - - - - - SSE 9 17 5 9 - - -
18/05:30pm - - - - - SSE 13 24 7 13 - - -
18/05:00pm - - - - - SE 17 30 9 16 - - -
18/04:30pm - - - - - SE 17 26 9 14 - - -
18/04:00pm - - - - - SE 20 30 11 16 - - -
18/03:30pm - - - - - S 26 33 14 18 - - -
18/03:00pm - - - - - SE 24 33 13 18 - - -
18/02:30pm - - - - - SE 20 32 11 17 - - -
18/02:00pm - - - - - SE 19 24 10 13 - - -
18/01:30pm - - - - - ESE 22 33 12 18 - - -
18/01:00pm - - - - - ESE 22 30 12 16 - - -
18/12:30pm - - - - - ESE 20 30 11 16 - - -
18/12:00pm - - - - - ESE 17 24 9 13 - - -

Other Formats:

Comma delimited format used in spreadsheet applications
http://www.bom.gov.au/fwo/IDN60801/IDN60801.94769.axf

JavaScript Object Notation format (JSON) in row-major order
http://www.bom.gov.au/fwo/IDN60801/IDN60801.94769.json